Time;durP1;ratioP1;P1;durP2;ratioP2;P2;SDS_P1;SDS_P2;PMS_P1;PMS_P2;Temp;Humidity;BMP_temperature;BMP_pressure;BME280_temperature;BME280_humidity;BME280_pressure;Samples;Min_cycle;Max_cycle;Signal;HPM_P1;HPM_P2
2024/01/15 00:01:51;;;;;;;22.13;11.17;;;;;;;;;;5280213;28;20482;-77
2024/01/15 00:04:22;;;;;;;21.87;12.13;;;;;;;;;;5280847;28;20095;-77
2024/01/15 00:06:53;;;;;;;22.07;11.60;;;;;;;;;;5281580;28;20395;-77
2024/01/15 00:09:24;;;;;;;22.17;11.83;;;;;;;;;;5279886;28;20064;-77
2024/01/15 00:11:55;;;;;;;20.13;11.30;;;;;;;;;;5281256;28;20383;-77
2024/01/15 00:14:27;;;;;;;20.87;10.80;;;;;;;;;;5282804;28;20028;-77
2024/01/15 00:16:58;;;;;;;22.63;12.47;;;;;;;;;;5284190;28;20008;-77
2024/01/15 00:19:32;;;;;;;17.53;10.70;;;;;;;;;;5284732;28;20503;-76
2024/01/15 00:22:03;;;;;;;18.53;9.97;;;;;;;;;;5284176;28;20514;-77
2024/01/15 00:24:34;;;;;;;19.83;10.20;;;;;;;;;;5284886;28;20070;-77
2024/01/15 00:27:05;;;;;;;17.70;10.03;;;;;;;;;;5284672;28;20029;-77
2024/01/15 00:29:36;;;;;;;15.27;9.17;;;;;;;;;;5283757;28;20012;-77
2024/01/15 00:32:08;;;;;;;15.80;9.20;;;;;;;;;;5284749;28;20501;-77
2024/01/15 00:34:39;;;;;;;15.57;8.60;;;;;;;;;;5284582;28;20046;-77
2024/01/15 00:37:10;;;;;;;15.33;8.13;;;;;;;;;;5283717;28;20032;-77
2024/01/15 00:39:42;;;;;;;15.17;8.20;;;;;;;;;;5284449;28;20484;-77
2024/01/15 00:42:13;;;;;;;11.70;6.93;;;;;;;;;;5284437;28;20089;-77
2024/01/15 00:44:44;;;;;;;10.63;6.03;;;;;;;;;;5283796;28;20052;-77
2024/01/15 00:47:17;;;;;;;10.70;5.00;;;;;;;;;;5284494;28;20024;-77
2024/01/15 00:49:48;;;;;;;8.47;4.37;;;;;;;;;;5283980;28;20012;-77
2024/01/15 00:52:20;;;;;;;7.27;3.13;;;;;;;;;;5283435;28;20482;-77
2024/01/15 00:54:51;;;;;;;8.27;2.33;;;;;;;;;;5284818;28;20414;-77
2024/01/15 00:57:22;;;;;;;5.27;1.40;;;;;;;;;;5283148;28;20028;-77
2024/01/15 00:59:53;;;;;;;3.90;1.00;;;;;;;;;;5284321;28;20056;-77
2024/01/15 01:02:24;;;;;;;2.93;0.90;;;;;;;;;;5283643;28;20013;-78
2024/01/15 01:04:55;;;;;;;3.33;0.63;;;;;;;;;;5283395;28;20028;-77
2024/01/15 01:07:27;;;;;;;3.33;0.43;;;;;;;;;;5283835;28;20432;-76
2024/01/15 01:09:58;;;;;;;3.43;0.40;;;;;;;;;;5284252;28;20025;-75
2024/01/15 01:12:29;;;;;;;4.37;0.30;;;;;;;;;;5283052;28;20181;-76
2024/01/15 01:15:01;;;;;;;1.63;0.20;;;;;;;;;;5283734;28;20479;-77
2024/01/15 01:17:32;;;;;;;1.30;0.20;;;;;;;;;;5283587;28;20023;-77
2024/01/15 01:20:06;;;;;;;4.03;0.20;;;;;;;;;;5282722;28;20029;-77
2024/01/15 01:22:37;;;;;;;2.67;0.20;;;;;;;;;;5283816;28;20399;-76
2024/01/15 01:25:09;;;;;;;2.73;0.97;;;;;;;;;;5282874;28;20029;-76
2024/01/15 01:27:40;;;;;;;2.30;0.10;;;;;;;;;;5282626;28;20099;-77
2024/01/15 01:30:11;;;;;;;1.63;0.10;;;;;;;;;;5283344;28;20032;-76
2024/01/15 01:32:43;;;;;;;0.47;0.10;;;;;;;;;;5282816;28;20016;-77
2024/01/15 01:35:14;;;;;;;2.88;0.48;;;;;;;;;;5283499;28;20020;-77
2024/01/15 01:37:45;;;;;;;0.97;0.10;;;;;;;;;;5283030;28;20021;-77
2024/01/15 01:40:16;;;;;;;3.93;0.10;;;;;;;;;;5282485;28;20055;-77
2024/01/15 01:42:48;;;;;;;0.97;0.20;;;;;;;;;;5283414;28;20028;-76
2024/01/15 01:45:19;;;;;;;1.00;0.20;;;;;;;;;;5283346;28;20025;-77
2024/01/15 01:47:50;;;;;;;2.20;0.30;;;;;;;;;;5282397;28;20025;-76
2024/01/15 01:50:21;;;;;;;3.43;0.20;;;;;;;;;;5282591;28;20023;-77
2024/01/15 01:52:53;;;;;;;2.07;0.20;;;;;;;;;;5283441;28;20024;-77
2024/01/15 01:55:25;;;;;;;2.90;0.20;;;;;;;;;;5282225;28;20349;-76
2024/01/15 01:57:56;;;;;;;3.10;0.47;;;;;;;;;;5283097;28;20101;-76
2024/01/15 02:00:27;;;;;;;3.03;0.30;;;;;;;;;;5282358;28;20071;-77
2024/01/15 02:02:59;;;;;;;1.67;0.20;;;;;;;;;;5282043;28;20467;-76
2024/01/15 02:05:30;;;;;;;1.57;0.17;;;;;;;;;;5282545;28;20118;-75
2024/01/15 02:08:01;;;;;;;1.90;0.50;;;;;;;;;;5281917;28;20087;-76
2024/01/15 02:10:33;;;;;;;3.90;0.60;;;;;;;;;;5282496;28;20027;-76
2024/01/15 02:13:04;;;;;;;1.17;0.10;;;;;;;;;;5282331;28;20024;-76
2024/01/15 02:15:35;;;;;;;1.60;0.20;;;;;;;;;;5281474;28;20482;-76
2024/01/15 02:18:09;;;;;;;1.60;0.20;;;;;;;;;;5282477;28;20032;-77
2024/01/15 02:20:40;;;;;;;2.13;0.30;;;;;;;;;;5282456;28;20017;-77
2024/01/15 02:23:13;;;;;;;2.52;0.20;;;;;;;;;;5281683;28;20047;-77
2024/01/15 02:25:45;;;;;;;3.80;0.20;;;;;;;;;;5282257;28;20020;-77
2024/01/15 02:28:17;;;;;;;1.93;0.20;;;;;;;;;;5281979;28;20037;-77
2024/01/15 02:30:48;;;;;;;3.03;0.70;;;;;;;;;;5281389;28;20495;-79
2024/01/15 02:33:19;;;;;;;2.80;0.60;;;;;;;;;;5282414;28;20035;-76
2024/01/15 02:35:51;;;;;;;2.57;0.23;;;;;;;;;;5281100;28;20058;-77
2024/01/15 02:38:22;;;;;;;2.73;0.10;;;;;;;;;;5281569;28;20490;-77
2024/01/15 02:40:53;;;;;;;1.30;0.40;;;;;;;;;;5282509;28;20071;-77
2024/01/15 02:43:24;;;;;;;2.27;0.20;;;;;;;;;;5280921;28;20017;-77
2024/01/15 02:45:55;;;;;;;1.57;0.13;;;;;;;;;;5282423;28;20086;-77
2024/01/15 02:48:26;;;;;;;1.77;0.10;;;;;;;;;;5281605;28;20373;-77
2024/01/15 02:50:58;;;;;;;2.77;0.20;;;;;;;;;;5281177;28;20473;-78
2024/01/15 02:53:29;;;;;;;3.30;0.20;;;;;;;;;;5282099;28;20056;-77
2024/01/15 02:56:00;;;;;;;1.97;0.10;;;;;;;;;;5281973;28;20021;-77
2024/01/15 02:58:31;;;;;;;2.30;0.10;;;;;;;;;;5281065;28;20059;-78
2024/01/15 03:01:02;;;;;;;1.17;0.10;;;;;;;;;;5281815;28;20494;-77
2024/01/15 03:03:34;;;;;;;2.43;0.40;;;;;;;;;;5282142;28;20043;-78
2024/01/15 03:06:05;;;;;;;5.17;0.50;;;;;;;;;;5280779;28;20020;-77
2024/01/15 03:08:36;;;;;;;3.13;0.20;;;;;;;;;;5281801;28;20483;-77
2024/01/15 03:11:08;;;;;;;4.17;0.20;;;;;;;;;;5281252;28;20143;-78
2024/01/15 03:13:39;;;;;;;3.10;0.20;;;;;;;;;;5281726;28;20485;-77
2024/01/15 03:16:10;;;;;;;3.38;0.14;;;;;;;;;;5281635;28;20019;-77
2024/01/15 03:18:41;;;;;;;2.67;0.10;;;;;;;;;;5281139;28;20513;-78
2024/01/15 03:21:12;;;;;;;3.60;0.17;;;;;;;;;;5281706;28;20383;-78
2024/01/15 03:23:44;;;;;;;4.43;0.20;;;;;;;;;;5281759;28;20115;-77
2024/01/15 03:26:15;;;;;;;3.40;0.20;;;;;;;;;;5280893;28;20016;-77
2024/01/15 03:28:46;;;;;;;3.13;0.27;;;;;;;;;;5281630;28;20032;-78
2024/01/15 03:31:17;;;;;;;3.37;0.20;;;;;;;;;;5281757;28;20537;-77
2024/01/15 03:33:48;;;;;;;2.77;0.20;;;;;;;;;;5280903;28;20107;-77
2024/01/15 03:36:20;;;;;;;4.03;0.20;;;;;;;;;;5281648;28;20248;-78
2024/01/15 03:38:51;;;;;;;3.27;0.20;;;;;;;;;;5281225;28;20056;-78
2024/01/15 03:41:22;;;;;;;3.47;0.20;;;;;;;;;;5280351;28;20559;-77
2024/01/15 03:43:53;;;;;;;2.40;0.20;;;;;;;;;;5281640;28;20028;-78
2024/01/15 03:46:24;;;;;;;1.40;0.30;;;;;;;;;;5279944;28;20059;-77
2024/01/15 03:48:55;;;;;;;4.07;0.30;;;;;;;;;;5282881;28;20032;-78
2024/01/15 03:51:27;;;;;;;3.23;0.20;;;;;;;;;;5284478;28;20097;-78
2024/01/15 03:53:58;;;;;;;6.40;0.30;;;;;;;;;;5284133;28;20036;-77
2024/01/15 03:56:29;;;;;;;3.07;0.33;;;;;;;;;;5285014;28;20355;-78
2024/01/15 03:59:00;;;;;;;5.10;0.40;;;;;;;;;;5285037;28;20040;-77
2024/01/15 04:01:31;;;;;;;4.20;0.47;;;;;;;;;;5284382;28;20070;-77
2024/01/15 04:04:03;;;;;;;3.67;0.20;;;;;;;;;;5285108;28;20063;-77
2024/01/15 04:06:34;;;;;;;6.83;1.53;;;;;;;;;;5285249;28;20095;-77
2024/01/15 04:09:05;;;;;;;3.97;0.20;;;;;;;;;;5284275;28;20035;-78
2024/01/15 04:11:36;;;;;;;5.43;0.30;;;;;;;;;;5285142;28;20609;-78
2024/01/15 04:14:07;;;;;;;3.40;0.43;;;;;;;;;;5284596;28;20028;-78
2024/01/15 04:16:38;;;;;;;4.87;0.20;;;;;;;;;;5285088;28;20121;-77
2024/01/15 04:19:09;;;;;;;3.18;0.26;;;;;;;;;;5285078;28;20036;-77
2024/01/15 04:21:41;;;;;;;3.00;0.23;;;;;;;;;;5284088;28;20021;-77
2024/01/15 04:24:12;;;;;;;3.17;0.40;;;;;;;;;;5284940;28;20023;-77
2024/01/15 04:26:45;;;;;;;1.93;0.20;;;;;;;;;;5284617;28;20013;-76
2024/01/15 04:29:16;;;;;;;4.90;0.30;;;;;;;;;;5284091;28;20787;-75
2024/01/15 04:31:47;;;;;;;3.43;0.20;;;;;;;;;;5284782;28;20020;-76
2024/01/15 04:34:18;;;;;;;2.90;0.13;;;;;;;;;;5284649;28;20112;-77
2024/01/15 04:36:49;;;;;;;2.23;0.10;;;;;;;;;;5283805;28;20470;-76
2024/01/15 04:39:20;;;;;;;3.47;0.27;;;;;;;;;;5284511;28;20430;-76
2024/01/15 04:41:51;;;;;;;2.70;0.10;;;;;;;;;;5284651;28;20032;-76
2024/01/15 04:44:23;;;;;;;3.50;0.20;;;;;;;;;;5283804;28;20071;-78
2024/01/15 04:46:54;;;;;;;4.26;0.16;;;;;;;;;;5284680;28;20063;-77
2024/01/15 04:49:29;;;;;;;2.77;0.43;;;;;;;;;;5283235;28;20028;-77
2024/01/15 04:52:00;;;;;;;0.40;0.00;;;;;;;;;;5284602;28;20032;-78
2024/01/15 04:54:31;;;;;;;1.67;0.10;;;;;;;;;;5284549;28;20023;-77
2024/01/15 04:57:03;;;;;;;1.87;0.10;;;;;;;;;;5283819;28;20024;-77
2024/01/15 04:59:34;;;;;;;2.40;0.10;;;;;;;;;;5284040;28;20040;-77
2024/01/15 05:02:05;;;;;;;1.10;0.00;;;;;;;;;;5283242;28;20023;-77
2024/01/15 05:04:36;;;;;;;1.37;0.10;;;;;;;;;;5283406;28;20056;-76
2024/01/15 05:07:08;;;;;;;0.70;0.10;;;;;;;;;;5284106;28;20020;-76
2024/01/15 05:09:39;;;;;;;0.30;0.00;;;;;;;;;;5283977;28;20055;-76
2024/01/15 05:12:11;;;;;;;0.60;0.10;;;;;;;;;;5283308;28;20020;-76
2024/01/15 05:14:42;;;;;;;1.77;0.03;;;;;;;;;;5284088;28;20033;-76
2024/01/15 05:17:13;;;;;;;1.40;0.00;;;;;;;;;;5284270;28;20494;-76
2024/01/15 05:19:45;;;;;;;0.30;0.00;;;;;;;;;;5283223;28;20128;-76
2024/01/15 05:22:16;;;;;;;0.63;0.00;;;;;;;;;;5283812;28;20025;-76
2024/01/15 05:24:47;;;;;;;1.07;0.10;;;;;;;;;;5283087;28;20410;-76
2024/01/15 05:27:19;;;;;;;1.13;0.00;;;;;;;;;;5284153;28;20016;-76
2024/01/15 05:29:50;;;;;;;1.23;0.10;;;;;;;;;;5283829;28;20085;-76
2024/01/15 05:32:21;;;;;;;0.70;0.10;;;;;;;;;;5282607;28;20017;-76
2024/01/15 05:34:53;;;;;;;1.13;0.10;;;;;;;;;;5283935;28;20021;-76
2024/01/15 05:37:24;;;;;;;1.27;0.10;;;;;;;;;;5283060;28;20491;-77
2024/01/15 05:39:55;;;;;;;3.00;0.20;;;;;;;;;;5282967;28;20101;-76
2024/01/15 05:42:26;;;;;;;2.47;0.23;;;;;;;;;;5283076;28;20060;-76
2024/01/15 05:44:59;;;;;;;2.07;0.20;;;;;;;;;;5283566;28;20024;-76
2024/01/15 05:47:30;;;;;;;2.13;0.50;;;;;;;;;;5282541;28;20028;-76
2024/01/15 05:50:02;;;;;;;0.80;0.10;;;;;;;;;;5282829;28;20027;-76
2024/01/15 05:52:33;;;;;;;2.20;0.20;;;;;;;;;;5283019;28;20100;-76
2024/01/15 05:55:04;;;;;;;1.53;0.10;;;;;;;;;;5282485;28;20582;-77
2024/01/15 05:57:36;;;;;;;2.40;0.20;;;;;;;;;;5282919;28;20028;-76
2024/01/15 06:00:08;;;;;;;1.53;0.20;;;;;;;;;;5282357;28;20012;-76
2024/01/15 06:02:39;;;;;;;2.37;0.70;;;;;;;;;;5282905;28;20404;-77
2024/01/15 06:05:11;;;;;;;1.07;0.10;;;;;;;;;;5283245;28;20411;-78
2024/01/15 06:07:42;;;;;;;2.47;0.20;;;;;;;;;;5282129;28;20058;-78
2024/01/15 06:10:13;;;;;;;3.17;0.20;;;;;;;;;;5282803;28;20103;-77
2024/01/15 06:12:44;;;;;;;2.60;0.87;;;;;;;;;;5282323;28;20472;-78
2024/01/15 06:15:15;;;;;;;2.53;0.20;;;;;;;;;;5282252;28;20443;-76
2024/01/15 06:17:46;;;;;;;2.97;0.20;;;;;;;;;;5282730;28;20024;-78
2024/01/15 06:20:18;;;;;;;1.94;0.20;;;;;;;;;;5282715;28;20040;-77
2024/01/15 06:22:49;;;;;;;1.27;0.17;;;;;;;;;;5281740;28;20104;-77
2024/01/15 06:25:20;;;;;;;3.73;0.20;;;;;;;;;;5282250;28;20032;-76
2024/01/15 06:27:51;;;;;;;1.63;0.10;;;;;;;;;;5281916;28;20615;-77
2024/01/15 06:30:22;;;;;;;1.80;0.10;;;;;;;;;;5282254;28;20053;-77
2024/01/15 06:32:54;;;;;;;1.63;0.20;;;;;;;;;;5282790;28;20031;-78
2024/01/15 06:35:25;;;;;;;2.33;0.20;;;;;;;;;;5281240;28;20118;-77
2024/01/15 06:37:56;;;;;;;1.63;0.17;;;;;;;;;;5282319;28;20033;-74
2024/01/15 06:40:27;;;;;;;0.53;0.10;;;;;;;;;;5282003;28;20044;-77
2024/01/15 06:42:58;;;;;;;1.07;0.10;;;;;;;;;;5281388;28;20039;-76
2024/01/15 06:45:30;;;;;;;1.23;0.10;;;;;;;;;;5282313;28;20426;-77
2024/01/15 06:48:01;;;;;;;0.87;0.10;;;;;;;;;;5282343;28;20055;-76
2024/01/15 06:50:32;;;;;;;1.53;0.10;;;;;;;;;;5281241;28;20020;-76
2024/01/15 06:53:03;;;;;;;0.10;0.00;;;;;;;;;;5282365;28;20020;-77
2024/01/15 06:55:35;;;;;;;1.63;0.10;;;;;;;;;;5281978;28;20023;-77
2024/01/15 06:58:06;;;;;;;0.40;0.00;;;;;;;;;;5281117;28;20479;-76
2024/01/15 07:00:37;;;;;;;0.20;0.10;;;;;;;;;;5281950;28;20028;-76
2024/01/15 07:03:08;;;;;;;0.20;0.00;;;;;;;;;;5281145;28;20013;-76
2024/01/15 07:05:40;;;;;;;0.40;0.10;;;;;;;;;;5282155;28;20029;-76
2024/01/15 07:08:11;;;;;;;0.50;0.10;;;;;;;;;;5281816;28;20048;-76
2024/01/15 07:10:42;;;;;;;0.10;0.00;;;;;;;;;;5281064;28;20463;-76
2024/01/15 07:13:13;;;;;;;0.47;0.10;;;;;;;;;;5281736;28;20031;-76
2024/01/15 07:15:44;;;;;;;0.40;0.10;;;;;;;;;;5282036;28;20047;-76
2024/01/15 07:18:16;;;;;;;0.77;0.20;;;;;;;;;;5281179;28;20109;-76
2024/01/15 07:20:47;;;;;;;0.50;0.20;;;;;;;;;;5281804;28;20053;-76
2024/01/15 07:23:18;;;;;;;0.63;0.30;;;;;;;;;;5280983;28;20379;-76
2024/01/15 07:25:50;;;;;;;0.43;0.20;;;;;;;;;;5280804;28;20028;-76
2024/01/15 07:28:21;;;;;;;0.53;0.20;;;;;;;;;;5281810;28;20058;-76
2024/01/15 07:30:52;;;;;;;0.60;0.17;;;;;;;;;;5282259;28;20012;-75
2024/01/15 07:33:23;;;;;;;0.30;0.20;;;;;;;;;;5280710;28;20012;-74
2024/01/15 07:35:54;;;;;;;0.47;0.20;;;;;;;;;;5281875;28;20021;-74
2024/01/15 07:38:25;;;;;;;1.37;0.30;;;;;;;;;;5280393;28;20569;-74
2024/01/15 07:40:57;;;;;;;0.90;0.40;;;;;;;;;;5281600;28;20098;-74
2024/01/15 07:43:28;;;;;;;1.27;0.50;;;;;;;;;;5281180;28;20016;-76
2024/01/15 07:45:59;;;;;;;1.17;0.50;;;;;;;;;;5280730;28;20503;-76
2024/01/15 07:48:30;;;;;;;1.30;0.70;;;;;;;;;;5281490;28;20496;-75
2024/01/15 07:51:01;;;;;;;1.53;0.60;;;;;;;;;;5281306;28;20021;-76
2024/01/15 07:53:33;;;;;;;1.53;0.80;;;;;;;;;;5280920;28;20096;-75
2024/01/15 07:56:04;;;;;;;1.67;0.80;;;;;;;;;;5281396;28;20027;-76
2024/01/15 07:58:35;;;;;;;1.30;0.80;;;;;;;;;;5281244;28;20036;-75
2024/01/15 08:01:06;;;;;;;1.90;1.53;;;;;;;;;;5280293;28;20020;-77
2024/01/15 08:03:37;;;;;;;1.73;0.90;;;;;;;;;;5281314;28;20474;-74
2024/01/15 08:06:09;;;;;;;1.60;0.90;;;;;;;;;;5281194;28;20027;-76
2024/01/15 08:08:41;;;;;;;1.70;1.00;;;;;;;;;;5280577;28;20593;-75
2024/01/15 08:11:12;;;;;;;1.97;0.97;;;;;;;;;;5281087;28;20025;-78
2024/01/15 08:13:43;;;;;;;2.43;1.73;;;;;;;;;;5280466;28;20024;-78
2024/01/15 08:16:14;;;;;;;2.10;0.80;;;;;;;;;;5281249;28;20134;-77
2024/01/15 08:18:45;;;;;;;1.87;0.80;;;;;;;;;;5281201;28;20033;-78
2024/01/15 08:21:17;;;;;;;2.40;0.70;;;;;;;;;;5280551;28;20016;-78
2024/01/15 08:23:48;;;;;;;1.27;0.60;;;;;;;;;;5281090;28;20036;-79
2024/01/15 08:26:19;;;;;;;1.87;0.50;;;;;;;;;;5280948;28;20029;-79
2024/01/15 08:28:50;;;;;;;1.04;0.76;;;;;;;;;;5280530;28;20055;-80
2024/01/15 08:31:22;;;;;;;2.17;0.50;;;;;;;;;;5281052;28;20017;-79
2024/01/15 08:33:53;;;;;;;0.93;0.47;;;;;;;;;;5280770;28;20020;-79
2024/01/15 08:36:24;;;;;;;1.43;0.60;;;;;;;;;;5283742;28;20024;-79
2024/01/15 08:38:56;;;;;;;2.30;0.30;;;;;;;;;;5284828;28;20037;-79
2024/01/15 08:41:27;;;;;;;0.97;0.30;;;;;;;;;;5283748;28;20049;-79
2024/01/15 08:43:58;;;;;;;3.40;0.30;;;;;;;;;;5284697;28;20048;-79
2024/01/15 08:46:30;;;;;;;2.30;0.20;;;;;;;;;;5284398;28;20026;-78
2024/01/15 08:49:01;;;;;;;1.03;0.20;;;;;;;;;;5283549;28;20017;-76
2024/01/15 08:51:32;;;;;;;2.37;0.20;;;;;;;;;;5284802;28;20422;-77
2024/01/15 08:54:03;;;;;;;1.60;0.10;;;;;;;;;;5284470;28;20110;-77
2024/01/15 08:56:34;;;;;;;1.87;0.10;;;;;;;;;;5283801;28;20021;-78
2024/01/15 08:59:06;;;;;;;2.10;0.10;;;;;;;;;;5284030;28;20040;-76
2024/01/15 09:01:38;;;;;;;1.30;0.10;;;;;;;;;;5284229;28;20024;-77
2024/01/15 09:04:09;;;;;;;1.10;0.10;;;;;;;;;;5283681;28;20032;-75
2024/01/15 09:06:40;;;;;;;2.87;0.10;;;;;;;;;;5284210;28;20017;-77
2024/01/15 09:09:11;;;;;;;1.43;0.10;;;;;;;;;;5284279;28;20099;-77
2024/01/15 09:11:43;;;;;;;2.87;0.17;;;;;;;;;;5283247;28;20023;-77
2024/01/15 09:14:14;;;;;;;2.73;0.10;;;;;;;;;;5283923;28;20471;-76
2024/01/15 09:16:45;;;;;;;1.63;0.10;;;;;;;;;;5283364;28;20009;-75
2024/01/15 09:19:16;;;;;;;1.20;0.10;;;;;;;;;;5284058;28;20036;-76
2024/01/15 09:21:47;;;;;;;1.53;0.10;;;;;;;;;;5283871;28;20020;-76
2024/01/15 09:24:19;;;;;;;1.30;0.10;;;;;;;;;;5282943;28;20107;-78
2024/01/15 09:26:50;;;;;;;1.33;0.10;;;;;;;;;;5283640;28;20475;-76
2024/01/15 09:29:23;;;;;;;1.03;0.10;;;;;;;;;;5283256;28;20031;-76
2024/01/15 09:31:54;;;;;;;2.00;0.20;;;;;;;;;;5283317;28;20353;-77
2024/01/15 09:34:25;;;;;;;2.47;0.10;;;;;;;;;;5283307;28;20077;-76
2024/01/15 09:36:56;;;;;;;1.13;0.10;;;;;;;;;;5283564;28;20028;-76
2024/01/15 09:39:28;;;;;;;1.47;0.10;;;;;;;;;;5282516;28;20112;-79
2024/01/15 09:41:59;;;;;;;1.30;0.10;;;;;;;;;;5282853;28;20044;-76
2024/01/15 09:44:30;;;;;;;2.37;0.20;;;;;;;;;;5283524;28;20048;-76
2024/01/15 09:47:03;;;;;;;1.87;0.20;;;;;;;;;;5282082;28;20089;-78
2024/01/15 09:49:35;;;;;;;2.93;0.30;;;;;;;;;;5283151;28;20352;-78
2024/01/15 09:52:07;;;;;;;0.90;0.20;;;;;;;;;;5282707;28;20044;-77
2024/01/15 09:54:40;;;;;;;4.87;0.27;;;;;;;;;;5283256;28;20047;-77
2024/01/15 09:57:11;;;;;;;2.97;0.20;;;;;;;;;;5283204;28;20036;-76
2024/01/15 09:59:42;;;;;;;1.70;0.30;;;;;;;;;;5282260;28;20016;-76
2024/01/15 10:02:18;;;;;;;2.20;0.30;;;;;;;;;;5282787;28;20075;-73
2024/01/15 10:04:49;;;;;;;1.93;0.30;;;;;;;;;;5283323;28;20020;-75
2024/01/15 10:07:21;;;;;;;1.27;0.20;;;;;;;;;;5281736;28;20030;-75
2024/01/15 10:09:53;;;;;;;0.90;0.10;;;;;;;;;;5283134;28;20019;-75
2024/01/15 10:12:26;;;;;;;2.10;0.17;;;;;;;;;;5282561;28;20016;-75
2024/01/15 10:14:58;;;;;;;1.03;0.20;;;;;;;;;;5282282;28;20513;-74
2024/01/15 10:17:30;;;;;;;4.00;0.20;;;;;;;;;;5282993;28;20017;-74
2024/01/15 10:20:04;;;;;;;1.87;0.20;;;;;;;;;;5281607;28;20074;-72
2024/01/15 10:22:37;;;;;;;3.23;0.20;;;;;;;;;;5282621;28;20047;-74
2024/01/15 10:25:15;;;;;;;1.87;0.23;;;;;;;;;;5282405;28;20039;-76
2024/01/15 10:27:58;;;;;;;2.30;0.30;;;;;;;;;;5281939;28;20103;-76
2024/01/15 10:30:30;;;;;;;2.63;0.27;;;;;;;;;;5282525;28;20032;-75
2024/01/15 10:33:02;;;;;;;3.90;0.43;;;;;;;;;;5282476;28;20017;-76
2024/01/15 10:35:34;;;;;;;3.03;0.20;;;;;;;;;;5281667;28;20021;-76
2024/01/15 10:38:05;;;;;;;2.27;0.30;;;;;;;;;;5282596;28;20094;-77
2024/01/15 10:40:36;;;;;;;1.97;0.30;;;;;;;;;;5282285;28;20043;-77
2024/01/15 10:43:08;;;;;;;1.87;0.33;;;;;;;;;;5281488;28;20037;-77
2024/01/15 10:45:39;;;;;;;1.40;0.20;;;;;;;;;;5282138;28;20017;-78
2024/01/15 10:48:10;;;;;;;1.53;0.30;;;;;;;;;;5281343;28;20029;-73
2024/01/15 10:50:41;;;;;;;1.97;0.53;;;;;;;;;;5282197;28;20091;-75
2024/01/15 10:53:14;;;;;;;3.03;0.30;;;;;;;;;;5282242;28;20066;-76
2024/01/15 10:55:48;;;;;;;2.07;0.20;;;;;;;;;;5281376;28;20021;-75
2024/01/15 10:58:20;;;;;;;1.37;0.20;;;;;;;;;;5280998;28;20039;-77
2024/01/15 11:00:51;;;;;;;2.97;0.27;;;;;;;;;;5282307;28;20031;-77
2024/01/15 11:03:23;;;;;;;1.67;0.20;;;;;;;;;;5281061;28;20087;-75
2024/01/15 11:05:54;;;;;;;1.90;0.10;;;;;;;;;;5282398;28;20052;-76
2024/01/15 11:08:25;;;;;;;1.37;0.20;;;;;;;;;;5281786;28;20070;-76
2024/01/15 11:10:57;;;;;;;4.03;0.40;;;;;;;;;;5281041;28;20092;-77
2024/01/15 11:13:31;;;;;;;4.03;0.20;;;;;;;;;;5281764;28;20020;-76
2024/01/15 11:16:03;;;;;;;2.20;0.53;;;;;;;;;;5281749;28;20476;-77
2024/01/15 11:18:35;;;;;;;1.70;0.20;;;;;;;;;;5280986;28;20032;-76
2024/01/15 11:21:07;;;;;;;3.30;0.50;;;;;;;;;;5281558;28;20016;-77
2024/01/15 11:23:57;;;;;;;1.48;0.18;;;;;;;;;;5281136;28;20074;-76
2024/01/15 11:26:44;;;;;;;2.23;0.10;;;;;;;;;;5281498;28;20020;-77
2024/01/15 11:29:27;;;;;;;0.90;0.13;;;;;;;;;;5281711;28;20418;-77
2024/01/15 11:32:04;;;;;;;0.67;0.10;;;;;;;;;;5281120;28;20054;-78
2024/01/15 11:34:57;;;;;;;2.43;0.20;;;;;;;;;;5281644;28;20103;-79
2024/01/15 11:37:48;;;;;;;0.60;0.10;;;;;;;;;;5280608;28;20028;-79
2024/01/15 11:40:35;;;;;;;1.37;0.20;;;;;;;;;;5281363;28;20035;-79
2024/01/15 11:43:07;;;;;;;1.03;0.00;;;;;;;;;;5281701;28;20539;-79
2024/01/15 11:45:39;;;;;;;0.73;0.03;;;;;;;;;;5280878;28;20025;-80
2024/01/15 11:48:16;;;;;;;1.97;0.10;;;;;;;;;;5281347;28;20012;-79
2024/01/15 11:50:51;;;;;;;0.43;0.10;;;;;;;;;;5281712;28;20114;-79
2024/01/15 11:53:34;;;;;;;0.83;0.30;;;;;;;;;;5280452;28;20024;-79
2024/01/15 11:56:09;;;;;;;1.03;0.13;;;;;;;;;;5281340;28;20016;-80
2024/01/15 11:58:40;;;;;;;0.60;0.20;;;;;;;;;;5280719;28;20182;-79
2024/01/15 12:01:11;;;;;;;1.00;0.20;;;;;;;;;;5281413;28;20107;-80
2024/01/15 12:03:44;;;;;;;0.50;0.10;;;;;;;;;;5281515;28;20046;-80
2024/01/15 12:06:15;;;;;;;2.10;0.17;;;;;;;;;;5280729;28;20062;-81
2024/01/15 12:08:46;;;;;;;0.60;0.20;;;;;;;;;;5281447;28;20096;-81
2024/01/15 12:11:19;;;;;;;1.40;0.13;;;;;;;;;;5284939;28;20032;-80
2024/01/15 12:13:53;;;;;;;0.67;0.10;;;;;;;;;;5284886;28;20028;-81
2024/01/15 12:16:25;;;;;;;1.60;0.20;;;;;;;;;;5284968;28;20028;-79
2024/01/15 12:18:56;;;;;;;0.67;0.13;;;;;;;;;;5285342;28;20158;-80
2024/01/15 12:21:27;;;;;;;1.17;0.30;;;;;;;;;;5284138;28;20499;-80
2024/01/15 12:23:59;;;;;;;1.40;0.23;;;;;;;;;;5285157;28;20095;-80
2024/01/15 12:26:30;;;;;;;1.43;0.20;;;;;;;;;;5284515;28;20016;-79
2024/01/15 12:29:06;;;;;;;1.90;0.20;;;;;;;;;;5285030;28;20028;-79
2024/01/15 12:31:37;;;;;;;1.30;0.20;;;;;;;;;;5284994;28;20016;-80
2024/01/15 12:34:08;;;;;;;1.03;0.13;;;;;;;;;;5284014;28;20035;-80
2024/01/15 12:36:40;;;;;;;1.93;0.10;;;;;;;;;;5284749;28;20021;-80
2024/01/15 12:39:11;;;;;;;1.63;0.20;;;;;;;;;;5284830;28;20026;-80
2024/01/15 12:41:43;;;;;;;1.60;0.20;;;;;;;;;;5283886;28;20041;-80
2024/01/15 12:44:14;;;;;;;1.93;0.10;;;;;;;;;;5284602;28;20032;-79
2024/01/15 12:46:45;;;;;;;0.60;0.10;;;;;;;;;;5284597;28;20447;-80
2024/01/15 12:49:17;;;;;;;1.00;0.10;;;;;;;;;;5283913;28;20463;-80
2024/01/15 12:51:54;;;;;;;0.87;0.20;;;;;;;;;;5284436;28;20056;-80
2024/01/15 12:54:25;;;;;;;0.30;0.10;;;;;;;;;;5283933;28;20024;-80
2024/01/15 12:56:56;;;;;;;1.43;0.10;;;;;;;;;;5284019;28;20404;-79
2024/01/15 12:59:28;;;;;;;1.00;0.70;;;;;;;;;;5284136;28;20043;-79
2024/01/15 13:01:59;;;;;;;0.73;0.10;;;;;;;;;;5283575;28;20020;-80
2024/01/15 13:04:30;;;;;;;1.77;0.20;;;;;;;;;;5284449;28;20092;-80
2024/01/15 13:07:02;;;;;;;1.27;0.10;;;;;;;;;;5281751;28;20024;-81
2024/01/15 13:09:34;;;;;;;0.53;0.10;;;;;;;;;;5285236;28;20020;-81
2024/01/15 13:12:06;;;;;;;0.67;0.10;;;;;;;;;;5288782;28;20076;-79
2024/01/15 13:14:37;;;;;;;0.40;0.10;;;;;;;;;;5292166;28;20059;-80
2024/01/15 13:17:08;;;;;;;1.10;0.10;;;;;;;;;;5286292;28;20017;-80
2024/01/15 13:19:40;;;;;;;0.97;0.20;;;;;;;;;;5284654;28;20490;-80
2024/01/15 13:22:13;;;;;;;0.40;0.10;;;;;;;;;;5282825;28;20016;-79
2024/01/15 13:24:45;;;;;;;0.90;0.10;;;;;;;;;;5281650;28;20405;-78
2024/01/15 13:27:17;;;;;;;0.40;0.10;;;;;;;;;;5283035;28;20426;-79
2024/01/15 13:29:48;;;;;;;0.67;0.20;;;;;;;;;;5282993;28;20016;-84
2024/01/15 13:32:23;;;;;;;1.90;0.17;;;;;;;;;;5283370;28;20023;-79
2024/01/15 13:34:58;;;;;;;0.30;0.10;;;;;;;;;;5284042;28;20475;-79
2024/01/15 13:37:29;;;;;;;0.77;0.10;;;;;;;;;;5282968;28;20042;-78
2024/01/15 13:40:00;;;;;;;1.13;0.40;;;;;;;;;;5283665;28;20132;-78
2024/01/15 13:42:31;;;;;;;2.73;0.40;;;;;;;;;;5283519;28;20043;-79
2024/01/15 13:45:05;;;;;;;0.90;0.20;;;;;;;;;;5282107;28;20032;-79
2024/01/15 13:47:37;;;;;;;1.13;0.20;;;;;;;;;;5282852;28;20024;-78
2024/01/15 13:50:08;;;;;;;0.70;0.20;;;;;;;;;;5282810;28;20021;-78
2024/01/15 13:52:40;;;;;;;1.63;0.20;;;;;;;;;;5282483;28;20433;-78
2024/01/15 13:55:11;;;;;;;3.00;0.30;;;;;;;;;;5283133;28;20493;-79
2024/01/15 13:57:42;;;;;;;0.97;0.20;;;;;;;;;;5282830;28;20455;-79
2024/01/15 14:00:18;;;;;;;1.77;0.30;;;;;;;;;;5278511;28;20066;-77
2024/01/15 14:02:49;;;;;;;1.77;0.40;;;;;;;;;;5281148;28;20028;-76
2024/01/15 14:05:20;;;;;;;1.87;0.30;;;;;;;;;;5281575;28;20036;-76
2024/01/15 14:07:51;;;;;;;1.87;0.40;;;;;;;;;;5282390;28;20024;-76
2024/01/15 14:10:23;;;;;;;1.43;0.30;;;;;;;;;;5282569;28;20020;-76
2024/01/15 14:12:54;;;;;;;1.73;0.30;;;;;;;;;;5281991;28;20017;-76
2024/01/15 14:15:27;;;;;;;2.07;0.20;;;;;;;;;;5281918;28;20527;-76
2024/01/15 14:17:59;;;;;;;3.87;0.30;;;;;;;;;;5281399;28;20104;-76
2024/01/15 14:20:30;;;;;;;1.60;0.20;;;;;;;;;;5281513;28;20476;-76
2024/01/15 14:23:02;;;;;;;1.17;0.20;;;;;;;;;;5281597;28;20016;-76
2024/01/15 14:25:33;;;;;;;2.27;0.20;;;;;;;;;;5282589;28;20044;-76
2024/01/15 14:28:04;;;;;;;2.17;0.20;;;;;;;;;;5282011;28;20150;-76
2024/01/15 14:30:35;;;;;;;3.33;0.30;;;;;;;;;;5282409;28;20361;-76
2024/01/15 14:33:07;;;;;;;2.23;0.20;;;;;;;;;;5281512;28;20467;-76
2024/01/15 14:35:38;;;;;;;1.93;0.27;;;;;;;;;;5282572;28;20025;-76
2024/01/15 14:38:10;;;;;;;1.90;0.23;;;;;;;;;;5282431;28;20012;-76
2024/01/15 14:40:41;;;;;;;1.53;0.30;;;;;;;;;;5281489;28;20056;-75
2024/01/15 14:43:12;;;;;;;2.63;0.30;;;;;;;;;;5282189;28;20024;-76
2024/01/15 14:45:43;;;;;;;2.97;0.37;;;;;;;;;;5282508;28;20028;-76
2024/01/15 14:48:14;;;;;;;2.77;0.30;;;;;;;;;;5281475;28;20097;-76
2024/01/15 14:50:46;;;;;;;2.43;0.30;;;;;;;;;;5282268;28;20037;-75
2024/01/15 14:53:17;;;;;;;4.33;0.20;;;;;;;;;;5282061;28;20043;-75
2024/01/15 14:55:48;;;;;;;2.97;0.27;;;;;;;;;;5281062;28;20198;-76
2024/01/15 14:58:19;;;;;;;1.77;0.30;;;;;;;;;;5282099;28;20036;-75
2024/01/15 15:00:50;;;;;;;2.63;0.30;;;;;;;;;;5281814;28;20028;-75
2024/01/15 15:03:22;;;;;;;2.73;0.30;;;;;;;;;;5281210;28;20013;-74
2024/01/15 15:05:53;;;;;;;4.77;0.70;;;;;;;;;;5282118;28;20154;-75
2024/01/15 15:08:24;;;;;;;4.63;0.50;;;;;;;;;;5280643;28;20099;-76
2024/01/15 15:10:56;;;;;;;1.87;0.30;;;;;;;;;;5282064;28;20024;-75